Time;durP1;ratioP1;P1;durP2;ratioP2;P2;SDS_P1;SDS_P2;PMS_P1;PMS_P2;Temp;Humidity;BMP_temperature;BMP_pressure;BME280_temperature;BME280_humidity;BME280_pressure;Samples;Min_cycle;Max_cycle;Signal;HPM_P1;HPM_P2
2022/04/07 00:00:48;;;;;;;2.88;1.52;;;;;;;10.04;90.24;97726.88;4930317;28;20168;-90
2022/04/07 00:03:14;;;;;;;1.23;1.13;;;;;;;10.01;89.78;97727.25;4942016;28;20464;-90
2022/04/07 00:05:39;;;;;;;1.83;1.30;;;;;;;10.03;90.17;97722.53;4940980;28;20507;-90
2022/04/07 00:08:05;;;;;;;1.98;1.20;;;;;;;9.96;89.44;97702.97;4931362;28;20020;-90
2022/04/07 00:10:31;;;;;;;2.42;1.20;;;;;;;9.95;88.50;97710.13;4921924;29;20450;-90
2022/04/07 00:12:56;;;;;;;1.23;1.05;;;;;;;9.94;88.77;97697.81;4932203;29;20039;-90
2022/04/07 00:15:23;;;;;;;1.08;0.98;;;;;;;10.00;89.48;97701.56;4930619;29;20062;-90
2022/04/07 00:17:48;;;;;;;3.47;1.02;;;;;;;10.00;89.65;97697.03;4938130;28;20027;-90
2022/04/07 00:20:14;;;;;;;2.75;1.10;;;;;;;10.05;89.45;97696.47;4940323;28;20039;-90
2022/04/07 00:22:39;;;;;;;0.80;0.80;;;;;;;10.05;89.81;97694.63;4930985;29;20368;-90
2022/04/07 00:25:05;;;;;;;1.25;1.10;;;;;;;10.02;89.24;97695.00;4925391;29;20050;-90
2022/04/07 00:27:30;;;;;;;2.25;1.20;;;;;;;9.98;88.92;97676.91;4939172;28;20039;-90
2022/04/07 00:29:57;;;;;;;2.10;1.10;;;;;;;9.97;87.96;97675.25;4924463;28;20027;-90
2022/04/07 00:32:22;;;;;;;2.30;1.33;;;;;;;9.96;88.63;97669.06;4925420;28;20070;-90
2022/04/07 00:34:49;;;;;;;1.20;0.95;;;;;;;9.94;88.48;97673.78;4938201;28;20051;-90
2022/04/07 00:37:16;;;;;;;1.63;1.00;;;;;;;9.95;89.10;97669.28;4939740;28;20028;-90
2022/04/07 00:39:41;;;;;;;1.42;1.10;;;;;;;9.94;88.74;97667.63;4931496;28;20035;-90
2022/04/07 00:42:07;;;;;;;1.88;1.10;;;;;;;9.99;89.04;97646.50;4931211;28;20102;-90
2022/04/07 00:44:34;;;;;;;1.55;1.45;;;;;;;9.97;89.04;97661.91;4920625;29;20047;-90
2022/04/07 00:47:00;;;;;;;2.65;1.27;;;;;;;9.94;89.10;97649.75;4939600;28;20023;-90
2022/04/07 00:49:25;;;;;;;1.45;1.30;;;;;;;9.94;88.36;97646.25;4938634;28;20486;-90
2022/04/07 00:51:50;;;;;;;3.65;1.27;;;;;;;9.97;88.80;97653.88;4932351;28;20027;-90
2022/04/07 00:54:17;;;;;;;1.38;1.27;;;;;;;9.96;88.69;97639.72;4937817;28;20039;-90
2022/04/07 00:56:42;;;;;;;2.03;1.00;;;;;;;9.97;88.56;97630.69;4925445;29;20959;-90
2022/04/07 00:59:08;;;;;;;1.38;1.10;;;;;;;9.99;88.92;97638.50;4930134;28;20027;-90
2022/04/07 01:01:33;;;;;;;1.40;1.30;;;;;;;9.96;87.93;97626.34;4923383;28;20067;-90
2022/04/07 01:03:59;;;;;;;2.45;1.10;;;;;;;9.92;88.08;97619.72;4923239;29;20098;-90
2022/04/07 01:06:24;;;;;;;1.85;1.20;;;;;;;9.95;87.95;97618.53;4931109;29;20051;-90
2022/04/07 01:08:50;;;;;;;1.13;1.02;;;;;;;9.90;88.04;97611.09;4931552;29;20118;-90
2022/04/07 01:11:16;;;;;;;1.73;1.08;;;;;;;9.88;88.26;97610.44;4930690;29;20059;-90
2022/04/07 01:13:52;;;;;;;2.95;1.40;;;;;;;9.94;88.51;97600.88;4923429;28;20377;-90
2022/04/07 01:16:19;;;;;;;2.22;0.90;;;;;;;9.97;88.68;97584.47;4930172;29;20045;-90
2022/04/07 01:18:46;;;;;;;1.10;1.00;;;;;;;9.95;87.78;97607.88;4924426;28;20066;-90
2022/04/07 01:21:14;;;;;;;0.98;0.90;;;;;;;9.94;87.42;97601.69;4940678;28;20031;-90
2022/04/07 01:23:44;;;;;;;0.80;0.80;;;;;;;9.94;88.52;97583.00;4939538;28;20091;-89
2022/04/07 01:26:10;;;;;;;1.00;0.90;;;;;;;9.95;88.09;97586.50;4930702;28;20035;-90
2022/04/07 01:28:36;;;;;;;1.95;0.95;;;;;;;9.89;87.57;97584.56;4939060;28;20050;-90
2022/04/07 01:31:01;;;;;;;1.40;0.90;;;;;;;9.89;87.69;97573.91;4931309;28;20027;-90
2022/04/07 01:33:27;;;;;;;0.90;0.90;;;;;;;9.94;88.10;97582.19;4929989;29;20687;-90
2022/04/07 01:35:53;;;;;;;1.30;0.90;;;;;;;9.87;87.43;97578.59;4931888;28;20354;-90
2022/04/07 01:38:19;;;;;;;0.98;0.77;;;;;;;9.87;87.58;97576.75;4937823;28;20047;-90
2022/04/07 01:40:45;;;;;;;2.92;0.90;;;;;;;9.90;87.75;97579.03;4924936;28;20023;-90
2022/04/07 01:43:11;;;;;;;1.10;0.70;;;;;;;9.90;87.88;97571.03;4930145;28;20031;-90
2022/04/07 01:45:37;;;;;;;0.80;0.60;;;;;;;9.91;87.43;97567.34;4922752;28;20039;-90
2022/04/07 01:48:04;;;;;;;1.85;0.80;;;;;;;9.92;87.54;97561.00;4942335;28;20598;-90
2022/04/07 01:50:29;;;;;;;2.45;0.70;;;;;;;9.90;87.95;97552.34;4941200;28;20043;-90
2022/04/07 01:52:56;;;;;;;1.58;0.80;;;;;;;9.88;87.78;97553.56;4933112;29;20114;-90
2022/04/07 01:55:26;;;;;;;1.42;1.00;;;;;;;9.89;87.44;97561.38;4933661;28;20038;-90
2022/04/07 01:57:51;;;;;;;2.78;0.88;;;;;;;9.90;87.81;97556.88;4943130;28;20067;-90
2022/04/07 02:00:17;;;;;;;1.58;0.75;;;;;;;9.87;87.42;97555.41;4926938;28;20536;-90
2022/04/07 02:02:42;;;;;;;1.58;0.80;;;;;;;9.83;86.54;97542.66;4944935;28;20401;-90
2022/04/07 02:05:10;;;;;;;0.98;0.80;;;;;;;9.84;86.66;97550.47;4934382;28;20409;-90
2022/04/07 02:07:38;;;;;;;1.90;0.80;;;;;;;9.86;87.77;97534.25;4935175;28;20035;-90
2022/04/07 02:10:04;;;;;;;1.33;0.77;;;;;;;9.86;87.83;97543.09;4940723;28;21400;-90
2022/04/07 02:12:30;;;;;;;1.90;0.80;;;;;;;9.91;88.28;97537.16;4941806;28;20039;-90
2022/04/07 02:14:56;;;;;;;0.68;0.68;;;;;;;9.90;88.35;97538.19;4933582;29;20050;-90
2022/04/07 02:17:22;;;;;;;1.48;0.90;;;;;;;9.90;88.07;97516.81;4928874;28;20043;-90
2022/04/07 02:19:56;;;;;;;0.95;0.80;;;;;;;9.90;88.37;97523.00;4942410;28;20365;-91
2022/04/07 02:22:21;;;;;;;0.90;0.63;;;;;;;9.90;88.38;97511.47;4925195;29;20124;-90
2022/04/07 02:24:47;;;;;;;1.38;0.90;;;;;;;9.91;88.79;97515.81;4927477;29;20128;-90
2022/04/07 02:27:13;;;;;;;1.80;0.80;;;;;;;9.91;88.23;97521.13;4926917;29;20035;-90
2022/04/07 02:29:40;;;;;;;1.40;0.80;;;;;;;9.90;88.29;97514.16;4942905;28;20448;-90
2022/04/07 02:32:06;;;;;;;1.98;0.73;;;;;;;9.92;88.56;97504.94;4947648;28;20031;-90
2022/04/07 02:34:31;;;;;;;2.17;0.80;;;;;;;9.90;88.41;97503.47;4933983;29;20911;-90
2022/04/07 02:36:56;;;;;;;1.00;0.80;;;;;;;9.90;87.93;97485.63;4943576;28;20039;-90
2022/04/07 02:39:22;;;;;;;2.28;0.93;;;;;;;9.87;87.40;97486.00;4932584;29;20397;-90
2022/04/07 02:41:48;;;;;;;2.00;0.80;;;;;;;9.86;87.67;97495.03;4941826;28;20109;-90
2022/04/07 02:44:13;;;;;;;1.60;0.70;;;;;;;9.85;87.94;97487.22;4925602;28;20120;-90
2022/04/07 02:46:41;;;;;;;2.03;1.00;;;;;;;9.85;88.58;97477.38;4942083;28;20054;-90
2022/04/07 02:49:06;;;;;;;2.40;0.90;;;;;;;9.84;88.36;97481.06;4940001;28;20038;-90
2022/04/07 02:51:32;;;;;;;2.72;1.00;;;;;;;9.84;88.08;97472.22;4925509;29;20043;-90
2022/04/07 02:53:58;;;;;;;1.02;0.88;;;;;;;9.82;88.05;97467.09;4942420;28;20035;-90
2022/04/07 02:56:24;;;;;;;3.10;0.93;;;;;;;9.89;88.71;97465.28;4932900;28;20045;-90
2022/04/07 02:58:50;;;;;;;1.48;0.95;;;;;;;9.89;88.80;97443.09;4940778;28;20468;-90
2022/04/07 03:01:15;;;;;;;1.85;1.10;;;;;;;9.83;88.44;97430.53;4940973;28;20043;-90
2022/04/07 03:03:41;;;;;;;1.88;1.10;;;;;;;9.85;88.82;97431.16;4942834;28;20449;-90
2022/04/07 03:06:06;;;;;;;2.10;1.00;;;;;;;9.85;88.54;97432.00;4924565;29;20047;-90
2022/04/07 03:08:33;;;;;;;2.95;1.10;;;;;;;9.86;89.07;97416.81;4925419;29;20027;-90
2022/04/07 03:11:00;;;;;;;1.55;1.08;;;;;;;9.87;88.80;97407.78;4932760;29;20392;-90
2022/04/07 03:13:25;;;;;;;1.45;1.15;;;;;;;9.86;89.38;97401.63;4940511;28;20046;-90
2022/04/07 03:15:50;;;;;;;1.75;0.93;;;;;;;9.84;88.77;97400.97;4927582;29;20073;-90
2022/04/07 03:18:16;;;;;;;2.05;1.02;;;;;;;9.85;89.09;97396.47;4925406;29;20028;-90
2022/04/07 03:20:41;;;;;;;2.35;1.10;;;;;;;9.85;89.23;97383.13;4925345;29;20103;-90
2022/04/07 03:23:07;;;;;;;1.38;0.80;;;;;;;9.86;89.25;97380.25;4933004;29;20070;-90
2022/04/07 03:25:32;;;;;;;0.90;0.80;;;;;;;9.85;88.65;97378.59;4941531;28;20532;-90
2022/04/07 03:27:57;;;;;;;2.33;0.90;;;;;;;9.86;89.29;97366.91;4931775;28;20039;-90
2022/04/07 03:30:23;;;;;;;1.52;0.77;;;;;;;9.85;88.55;97369.78;4926164;29;20370;-90
2022/04/07 03:32:48;;;;;;;1.92;1.00;;;;;;;9.86;88.77;97377.59;4925193;29;20028;-90
2022/04/07 03:35:13;;;;;;;1.75;1.00;;;;;;;9.87;88.98;97367.72;4941377;28;20028;-90
2022/04/07 03:37:39;;;;;;;2.78;1.00;;;;;;;9.88;89.25;97364.03;4931513;28;20164;-90
2022/04/07 03:40:05;;;;;;;1.02;0.88;;;;;;;9.85;89.17;97365.25;4941541;28;20054;-90
2022/04/07 03:42:30;;;;;;;1.70;0.82;;;;;;;9.83;89.57;97351.28;4940449;28;20036;-90
2022/04/07 03:44:56;;;;;;;1.95;0.95;;;;;;;9.84;89.44;97347.59;4932697;29;20042;-90
2022/04/07 03:47:21;;;;;;;0.80;0.80;;;;;;;9.86;90.03;97350.91;4942107;28;20416;-90
2022/04/07 03:49:46;;;;;;;1.20;0.90;;;;;;;9.87;89.54;97330.38;4940333;28;20042;-90
2022/04/07 03:52:12;;;;;;;2.70;1.20;;;;;;;9.88;89.94;97319.50;4932574;29;20519;-90
2022/04/07 03:54:37;;;;;;;1.42;1.10;;;;;;;9.86;90.24;97316.19;4931763;29;20043;-90
2022/04/07 03:57:02;;;;;;;1.42;1.20;;;;;;;9.88;90.20;97316.81;4925718;28;20842;-90
2022/04/07 03:59:29;;;;;;;1.25;1.10;;;;;;;9.87;90.32;97307.16;4932933;28;20054;-90
2022/04/07 04:01:55;;;;;;;2.35;1.20;;;;;;;9.81;89.78;97293.78;4932838;28;20212;-90
2022/04/07 04:04:22;;;;;;;2.22;1.02;;;;;;;9.80;89.76;97290.31;4942213;28;20033;-90
2022/04/07 04:06:47;;;;;;;1.20;1.00;;;;;;;9.84;90.19;97283.53;4940100;28;20377;-90
2022/04/07 04:09:15;;;;;;;2.17;1.10;;;;;;;9.85;90.73;97269.19;4940393;28;20031;-90
2022/04/07 04:11:41;;;;;;;0.90;0.90;;;;;;;9.88;90.52;97267.94;4939874;28;20031;-90
2022/04/07 04:14:06;;;;;;;2.17;1.10;;;;;;;9.87;90.03;97268.97;4926145;28;20131;-90
2022/04/07 04:16:32;;;;;;;2.60;1.10;;;;;;;9.86;89.85;97249.47;4931182;29;20480;-90
2022/04/07 04:18:58;;;;;;;3.33;1.30;;;;;;;9.84;89.43;97253.38;4924905;29;20031;-90
2022/04/07 04:21:23;;;;;;;1.27;0.95;;;;;;;9.83;89.69;97263.22;4931175;29;20031;-90
2022/04/07 04:23:48;;;;;;;0.90;0.90;;;;;;;9.85;89.62;97237.16;4931818;28;20532;-90
2022/04/07 04:26:14;;;;;;;1.17;1.02;;;;;;;9.86;89.84;97245.97;4931419;28;20034;-90
2022/04/07 04:28:39;;;;;;;1.63;0.90;;;;;;;9.85;90.07;97241.66;4941862;28;20513;-90
2022/04/07 04:31:05;;;;;;;2.63;0.90;;;;;;;9.84;90.26;97238.16;4933414;28;20034;-90
2022/04/07 04:33:30;;;;;;;1.02;0.93;;;;;;;9.81;90.24;97243.09;4942448;28;20062;-90
2022/04/07 04:35:55;;;;;;;1.10;0.90;;;;;;;9.81;90.69;97243.09;4932936;28;20041;-90
2022/04/07 04:38:20;;;;;;;1.00;0.90;;;;;;;9.85;90.84;97225.66;4923068;29;20047;-90
2022/04/07 04:40:46;;;;;;;1.80;0.90;;;;;;;9.81;90.88;97219.88;4931748;28;20486;-90
2022/04/07 04:43:11;;;;;;;1.48;0.80;;;;;;;9.82;90.90;97210.84;4941394;28;20038;-90
2022/04/07 04:45:36;;;;;;;1.52;0.68;;;;;;;9.81;91.28;97203.88;4931688;29;20035;-90
2022/04/07 04:48:02;;;;;;;2.60;0.90;;;;;;;9.80;91.47;97212.91;4930609;28;20464;-90
2022/04/07 04:50:27;;;;;;;1.27;0.73;;;;;;;9.82;91.30;97196.69;4931717;28;20043;-90
2022/04/07 04:52:53;;;;;;;1.10;0.75;;;;;;;9.82;91.53;97204.69;4930855;28;20038;-90
2022/04/07 04:55:19;;;;;;;0.88;0.80;;;;;;;9.82;91.78;97208.19;4938178;28;20162;-90
2022/04/07 04:57:44;;;;;;;1.42;0.70;;;;;;;9.81;91.64;97187.88;4921448;29;20449;-90
2022/04/07 05:00:11;;;;;;;1.23;0.70;;;;;;;9.81;91.78;97187.03;4929665;29;20050;-90
2022/04/07 05:02:37;;;;;;;1.48;0.90;;;;;;;9.82;91.86;97170.81;4932240;29;20056;-90
2022/04/07 05:05:05;;;;;;;1.63;1.00;;;;;;;9.82;91.93;97178.00;4935063;29;20602;-90
2022/04/07 05:07:30;;;;;;;1.05;0.85;;;;;;;9.82;91.80;97192.19;4939939;28;20128;-90
2022/04/07 05:09:56;;;;;;;1.02;0.95;;;;;;;9.76;91.77;97169.78;4931175;29;20031;-90
2022/04/07 05:12:21;;;;;;;2.55;0.90;;;;;;;9.81;92.21;97158.50;4938753;28;20035;-90
2022/04/07 05:14:46;;;;;;;0.73;0.70;;;;;;;9.81;91.91;97155.00;4922144;29;20027;-90
2022/04/07 05:17:12;;;;;;;2.03;0.98;;;;;;;9.81;91.82;97152.34;4923843;28;20031;-90
2022/04/07 05:19:38;;;;;;;1.48;0.77;;;;;;;9.83;91.98;97158.31;4938762;28;20453;-90
2022/04/07 05:22:04;;;;;;;1.40;0.80;;;;;;;9.82;91.93;97156.66;4934601;28;20035;-90
2022/04/07 05:24:29;;;;;;;2.88;0.75;;;;;;;9.78;92.33;97143.72;4934589;29;20035;-91
2022/04/07 05:26:54;;;;;;;2.70;0.80;;;;;;;9.77;92.22;97160.75;4935861;28;20091;-90
2022/04/07 05:29:20;;;;;;;1.92;0.82;;;;;;;9.79;92.22;97163.22;4934727;29;20122;-90
2022/04/07 05:31:45;;;;;;;3.22;1.00;;;;;;;9.76;92.40;97180.47;4928978;29;20098;-90
2022/04/07 05:34:10;;;;;;;1.60;0.80;;;;;;;9.78;92.60;97150.91;4927755;29;20046;-90
2022/04/07 05:36:36;;;;;;;1.80;0.80;;;;;;;9.77;92.95;97155.44;4929886;29;20036;-90
2022/04/07 05:39:02;;;;;;;2.15;0.90;;;;;;;9.81;92.67;97171.03;4930349;29;20031;-90
2022/04/07 05:41:28;;;;;;;3.90;1.23;;;;;;;9.76;92.30;97156.44;4943584;28;20047;-90
2022/04/07 05:43:53;;;;;;;4.93;1.20;;;;;;;9.70;93.30;97146.59;4928014;29;20393;-91
2022/04/07 05:46:18;;;;;;;2.33;0.90;;;;;;;9.69;93.27;97147.59;4943630;28;20333;-91
2022/04/07 05:48:44;;;;;;;2.85;1.20;;;;;;;9.69;93.66;97131.59;4944442;28;20050;-90
2022/04/07 05:51:12;;;;;;;2.40;0.90;;;;;;;9.67;94.23;97125.66;4934760;28;20027;-90
2022/04/07 05:53:37;;;;;;;2.67;1.20;;;;;;;9.66;94.57;97112.50;4944784;28;20047;-90
2022/04/07 05:56:03;;;;;;;2.08;1.05;;;;;;;9.63;94.74;97108.41;4934508;29;20031;-90
2022/04/07 05:58:28;;;;;;;1.55;1.00;;;;;;;9.63;94.71;97084.38;4927250;28;20039;-89
2022/04/07 06:00:54;;;;;;;2.75;0.90;;;;;;;9.66;94.88;97099.16;4945464;28;20038;-89
2022/04/07 06:03:19;;;;;;;2.75;0.75;;;;;;;9.67;94.89;97088.28;4948193;28;20481;-89
2022/04/07 06:05:44;;;;;;;2.20;0.90;;;;;;;9.70;95.01;97068.38;4937114;28;20055;-89
2022/04/07 06:08:10;;;;;;;1.98;0.80;;;;;;;9.70;94.89;97055.03;4945879;28;20029;-89
2022/04/07 06:10:36;;;;;;;1.88;0.70;;;;;;;9.73;94.57;97041.28;4931636;28;20030;-90
2022/04/07 06:13:01;;;;;;;2.17;0.80;;;;;;;9.72;94.82;97039.66;4931590;28;20843;-89
2022/04/07 06:15:28;;;;;;;1.27;0.63;;;;;;;9.71;94.51;97030.81;4935853;28;20031;-90
2022/04/07 06:17:54;;;;;;;1.42;0.52;;;;;;;9.70;94.34;97034.50;4936418;28;20043;-89
2022/04/07 06:20:21;;;;;;;2.67;0.73;;;;;;;9.69;94.62;97032.06;4931502;28;20035;-89
2022/04/07 06:22:46;;;;;;;1.75;0.80;;;;;;;9.75;94.68;97023.22;4946739;28;20041;-90
2022/04/07 06:25:12;;;;;;;1.38;0.70;;;;;;;9.68;94.51;97014.41;4931948;28;20027;-89
2022/04/07 06:27:42;;;;;;;2.38;0.70;;;;;;;9.67;94.95;97000.25;4945258;28;20032;-89
2022/04/07 06:30:10;;;;;;;1.10;0.57;;;;;;;9.73;94.62;96980.75;4936444;28;20965;-89
2022/04/07 06:32:36;;;;;;;1.05;0.73;;;;;;;9.73;94.75;96977.25;4928145;28;20535;-89
2022/04/07 06:35:02;;;;;;;1.42;0.43;;;;;;;9.74;94.80;96957.53;4926563;29;20032;-90
2022/04/07 06:37:28;;;;;;;0.85;0.43;;;;;;;9.74;94.38;96947.69;4929084;28;20086;-89
2022/04/07 06:40:03;;;;;;;0.32;0.32;;;;;;;9.72;94.28;96941.75;4933639;28;20031;-89
2022/04/07 06:42:28;;;;;;;0.93;0.60;;;;;;;9.72;94.72;96930.25;4928747;28;20038;-90
2022/04/07 06:44:56;;;;;;;1.60;0.60;;;;;;;9.73;94.92;96923.88;4934521;29;20038;-90
2022/04/07 06:47:23;;;;;;;1.20;0.50;;;;;;;9.78;94.79;96924.06;4936883;29;20031;-89
2022/04/07 06:49:52;;;;;;;1.08;0.40;;;;;;;9.80;94.45;96924.69;4924779;28;20043;-89
2022/04/07 06:52:17;;;;;;;;;;;;;;;9.78;94.71;96922.22;4942284;28;20456;-90
2022/04/07 06:54:43;;;;;;;1.40;0.52;;;;;;;9.81;94.95;96899.66;4943789;28;20041;-89
2022/04/07 06:57:08;;;;;;;1.42;0.60;;;;;;;9.81;94.58;96890.81;4932441;29;20039;-90
2022/04/07 06:59:33;;;;;;;1.10;0.45;;;;;;;9.82;95.03;96879.13;4931746;29;20054;-90
2022/04/07 07:01:58;;;;;;;1.13;0.55;;;;;;;9.83;95.13;96867.41;4942387;28;20038;-89
2022/04/07 07:04:24;;;;;;;1.20;0.52;;;;;;;9.83;95.61;96859.41;4932446;28;20170;-89
2022/04/07 07:06:50;;;;;;;2.95;0.68;;;;;;;9.86;94.76;96845.63;4932661;28;20110;-89
2022/04/07 07:09:15;;;;;;;1.23;0.50;;;;;;;9.87;94.99;96852.63;4927819;29;20035;-89
2022/04/07 07:11:40;;;;;;;0.57;0.35;;;;;;;9.87;95.13;96834.75;4944175;28;20392;-89
2022/04/07 07:14:06;;;;;;;1.92;0.47;;;;;;;9.90;94.90;96837.00;4934226;28;20031;-89
2022/04/07 07:16:31;;;;;;;0.30;0.20;;;;;;;9.93;95.25;96825.94;4932764;28;20452;-89
2022/04/07 07:18:56;;;;;;;0.55;0.50;;;;;;;9.92;95.23;96820.78;4926966;29;20102;-89
2022/04/07 07:21:22;;;;;;;1.10;0.50;;;;;;;9.86;95.38;96811.75;4934072;29;20035;-89
2022/04/07 07:23:47;;;;;;;0.70;0.30;;;;;;;9.83;95.23;96811.38;4934197;28;20437;-89
2022/04/07 07:26:13;;;;;;;0.20;0.20;;;;;;;9.85;95.90;96801.31;4935345;29;20118;-89
2022/04/07 07:28:38;;;;;;;0.52;0.30;;;;;;;9.92;95.51;96796.75;4946983;28;20031;-89
2022/04/07 07:31:04;;;;;;;1.73;0.30;;;;;;;9.93;95.87;96779.72;4935682;29;20376;-89
2022/04/07 07:33:29;;;;;;;1.08;0.60;;;;;;;9.93;96.39;96759.19;4944785;28;20043;-89
2022/04/07 07:35:54;;;;;;;1.35;0.40;;;;;;;9.91;96.10;96753.22;4943142;29;20035;-88
2022/04/07 07:38:21;;;;;;;0.93;0.30;;;;;;;9.94;95.98;96746.69;4951912;29;20039;-89
2022/04/07 07:40:47;;;;;;;0.22;0.22;;;;;;;9.98;96.35;96750.56;4961677;28;20585;-88
2022/04/07 07:43:12;;;;;;;2.00;0.32;;;;;;;9.97;96.26;96744.41;4950326;29;20019;-89
2022/04/07 07:45:37;;;;;;;0.30;0.30;;;;;;;9.96;96.21;96741.94;4952051;28;20051;-89
2022/04/07 07:48:03;;;;;;;0.68;0.40;;;;;;;10.02;96.71;96746.44;4947060;29;20023;-89
2022/04/07 07:50:28;;;;;;;0.52;0.30;;;;;;;9.98;96.03;96750.56;4956979;28;20090;-89
2022/04/07 07:52:53;;;;;;;1.70;0.43;;;;;;;9.97;96.64;96727.56;4949018;29;20067;-89
2022/04/07 07:55:19;;;;;;;1.17;0.30;;;;;;;9.97;96.38;96717.69;4943958;29;20063;-89
2022/04/07 07:57:45;;;;;;;0.85;0.30;;;;;;;10.01;96.56;96720.75;4942274;28;20046;-89
2022/04/07 08:00:12;;;;;;;0.28;0.20;;;;;;;9.99;96.62;96706.81;4928082;28;20031;-89
2022/04/07 08:02:38;;;;;;;0.60;0.40;;;;;;;9.98;96.95;96708.66;4934873;29;20041;-88
2022/04/07 08:05:04;;;;;;;0.22;0.20;;;;;;;10.05;96.49;96711.28;4934067;29;20043;-89
2022/04/07 08:07:29;;;;;;;0.55;0.15;;;;;;;10.02;96.75;96685.03;4933205;29;20126;-89
2022/04/07 08:09:56;;;;;;;0.95;0.20;;;;;;;10.01;96.75;96684.22;4942815;28;20117;-89
2022/04/07 08:12:23;;;;;;;0.70;0.30;;;;;;;10.04;97.01;96686.44;4942245;28;20061;-89
2022/04/07 08:14:48;;;;;;;0.73;0.20;;;;;;;10.05;97.09;96682.75;4934089;28;20043;-89
2022/04/07 08:17:14;;;;;;;0.20;0.20;;;;;;;10.05;96.85;96680.06;4933380;28;20118;-89
2022/04/07 08:19:40;;;;;;;0.17;0.17;;;;;;;10.06;97.45;96702.25;4933407;28;20030;-89
2022/04/07 08:22:06;;;;;;;0.50;0.22;;;;;;;10.07;97.81;96690.53;4942723;28;20039;-89
2022/04/07 08:24:31;;;;;;;0.13;0.10;;;;;;;10.08;97.99;96702.84;4926572;29;20559;-87
2022/04/07 08:26:56;;;;;;;0.25;0.20;;;;;;;10.05;97.88;96689.94;4933735;29;20107;-87
2022/04/07 08:29:22;;;;;;;0.30;0.20;;;;;;;10.06;97.76;96695.06;4933106;29;20098;-87
2022/04/07 08:31:51;;;;;;;0.68;0.30;;;;;;;10.08;98.15;96668.16;4925729;29;20043;-87
2022/04/07 08:34:20;;;;;;;0.55;0.30;;;;;;;10.07;98.11;96698.53;4957365;28;20047;-87
2022/04/07 08:36:46;;;;;;;0.20;0.20;;;;;;;10.09;98.50;96661.78;4932629;29;20051;-87
2022/04/07 08:39:12;;;;;;;2.00;0.30;;;;;;;10.13;98.28;96676.31;4941796;28;20066;-87
2022/04/07 08:41:39;;;;;;;0.20;0.20;;;;;;;10.12;98.17;96663.19;4941440;28;20086;-87
2022/04/07 08:44:04;;;;;;;1.05;0.35;;;;;;;10.12;98.53;96656.00;4948398;28;20425;-87
2022/04/07 08:46:31;;;;;;;2.92;0.30;;;;;;;10.18;98.77;96656.97;4940306;28;20069;-87
2022/04/07 08:48:56;;;;;;;0.28;0.20;;;;;;;10.21;99.24;96649.38;4923839;29;20453;-87
2022/04/07 08:51:25;;;;;;;0.20;0.20;;;;;;;10.22;99.15;96640.34;4931104;29;20038;-87
2022/04/07 08:53:51;;;;;;;;;;;;;;;10.22;99.73;96626.16;4937202;28;20300;-87
2022/04/07 08:56:16;;;;;;;0.20;0.20;;;;;;;10.24;99.69;96642.78;4938001;28;20009;-87
2022/04/07 08:58:41;;;;;;;1.27;0.40;;;;;;;10.26;99.63;96643.38;4931242;29;20031;-87
2022/04/07 09:01:08;;;;;;;0.30;0.30;;;;;;;10.29;99.45;96650.97;4932200;28;20083;-87
2022/04/07 09:03:33;;;;;;;3.67;0.38;;;;;;;10.28;99.89;96627.97;4930845;29;20062;-87
2022/04/07 09:06:00;;;;;;;1.38;0.20;;;;;;;10.25;99.91;96613.19;4929999;29;20110;-87
2022/04/07 09:08:39;;;;;;;0.38;0.20;;;;;;;10.25;99.95;96617.72;4939540;28;20480;-87
2022/04/07 09:11:07;;;;;;;0.30;0.30;;;;;;;10.25;100.00;96629.22;4940336;28;20466;-87
2022/04/07 09:13:35;;;;;;;0.40;0.30;;;;;;;10.29;100.00;96619.72;4923053;29;20039;-87
2022/04/07 09:16:03;;;;;;;0.57;0.30;;;;;;;10.28;100.00;96622.63;4938392;28;20290;-87
2022/04/07 09:18:33;;;;;;;0.28;0.20;;;;;;;10.29;100.00;96625.06;4921871;28;20031;-87
2022/04/07 09:20:58;;;;;;;1.67;0.20;;;;;;;10.25;100.00;96626.53;4936614;28;20046;-86
2022/04/07 09:23:23;;;;;;;0.75;0.30;;;;;;;10.27;100.00;96631.66;4924976;28;20392;-87
2022/04/07 09:25:49;;;;;;;1.77;0.30;;;;;;;10.29;100.00;96635.75;4943086;28;20491;-87
2022/04/07 09:28:31;;;;;;;2.15;0.50;;;;;;;10.27;100.00;96629.81;4939036;28;20059;-87
2022/04/07 09:31:00;;;;;;;0.63;0.35;;;;;;;10.29;100.00;96635.75;4930385;29;20031;-87
2022/04/07 09:33:26;;;;;;;;;;;;;;;10.28;100.00;96618.09;4940996;28;20055;-87
2022/04/07 09:35:58;;;;;;;1.33;0.30;;;;;;;10.29;100.00;96611.72;4930837;29;19918;-87
2022/04/07 09:38:25;;;;;;;0.98;0.40;;;;;;;10.29;100.00;96621.59;4928812;29;20131;-87
2022/04/07 09:40:50;;;;;;;2.63;0.50;;;;;;;10.26;100.00;96625.50;4939196;28;20419;-87
2022/04/07 09:43:16;;;;;;;0.88;0.50;;;;;;;10.24;100.00;96624.09;4930617;29;20031;-87
2022/04/07 09:45:47;;;;;;;1.75;0.50;;;;;;;10.25;100.00;96620.38;4922534;29;20035;-87
2022/04/07 09:48:19;;;;;;;3.28;0.60;;;;;;;10.27;100.00;96619.13;4938764;28;20035;-87
2022/04/07 09:51:02;;;;;;;2.25;0.40;;;;;;;10.24;100.00;96645.47;4940541;28;20153;-87
2022/04/07 09:53:35;;;;;;;1.98;0.60;;;;;;;10.22;100.00;96703.59;4927382;28;20034;-87
2022/04/07 09:56:01;;;;;;;4.40;1.60;;;;;;;10.20;100.00;96709.16;4940293;28;20146;-87
2022/04/07 09:58:28;;;;;;;4.00;1.20;;;;;;;10.20;100.00;96698.47;4940205;28;20049;-87
2022/04/07 10:00:53;;;;;;;2.72;0.98;;;;;;;10.19;100.00;96712.03;4931616;29;20031;-88
2022/04/07 10:03:19;;;;;;;2.92;0.70;;;;;;;10.12;100.00;96690.69;4931894;28;20050;-88
2022/04/07 10:05:47;;;;;;;3.88;0.77;;;;;;;10.10;100.00;96706.13;4925874;28;20479;-88
2022/04/07 10:08:15;;;;;;;5.07;0.75;;;;;;;10.08;100.00;96713.53;4934037;29;20464;-88
2022/04/07 10:10:42;;;;;;;4.60;1.02;;;;;;;10.07;100.00;96719.91;4934512;29;20059;-87
2022/04/07 10:13:08;;;;;;;2.50;0.40;;;;;;;10.04;100.00;96733.69;4943561;28;20031;-87
2022/04/07 10:15:35;;;;;;;1.02;0.50;;;;;;;10.02;100.00;96725.06;4943497;28;20161;-87
2022/04/07 10:18:04;;;;;;;2.42;0.40;;;;;;;10.02;100.00;96725.88;4926048;29;20948;-88
2022/04/07 10:20:33;;;;;;;1.08;0.47;;;;;;;10.04;100.00;96718.47;4942474;28;20045;-87
2022/04/07 10:23:07;;;;;;;1.52;0.50;;;;;;;10.09;100.00;96728.50;4933638;29;20042;-87
2022/04/07 10:25:37;;;;;;;1.10;0.50;;;;;;;10.09;100.00;96748.03;4939412;29;20028;-87
2022/04/07 10:28:04;;;;;;;1.02;0.40;;;;;;;10.08;100.00;96765.06;4942790;28;20506;-88
2022/04/07 10:30:30;;;;;;;1.23;0.60;;;;;;;10.09;100.00;96760.56;4940962;28;20050;-88
2022/04/07 10:32:58;;;;;;;1.70;0.45;;;;;;;10.10;100.00;96752.31;4941324;28;20075;-88
2022/04/07 10:35:29;;;;;;;1.20;0.50;;;;;;;10.18;100.00;96761.94;4926261;29;20039;-88
2022/04/07 10:37:58;;;;;;;0.90;0.50;;;;;;;10.16;100.00;96752.50;4942523;28;20752;-88
2022/04/07 10:40:33;;;;;;;;;;;;;;;10.18;100.00;96769.13;4941725;28;20338;-88
2022/04/07 10:43:13;;;;;;;0.85;0.30;;;;;;;10.19;99.78;96776.09;4933565;29;19942;-88
2022/04/07 10:45:39;;;;;;;2.15;0.40;;;;;;;10.19;99.08;96763.56;4942885;28;20433;-88
2022/04/07 10:48:18;;;;;;;1.10;0.38;;;;;;;10.18;99.70;96756.59;4942613;28;20055;-88
2022/04/07 10:50:47;;;;;;;1.02;0.45;;;;;;;10.16;99.31;96766.66;4932444;28;20169;-88
2022/04/07 10:53:24;;;;;;;0.60;0.30;;;;;;;10.15;98.72;96741.00;4924113;29;20035;-88
2022/04/07 10:56:12;;;;;;;0.43;0.28;;;;;;;10.14;98.63;96774.06;4944107;28;20087;-88
2022/04/07 10:58:45;;;;;;;0.20;0.20;;;;;;;10.12;97.67;96768.13;4932882;29;20062;-88
2022/04/07 11:01:32;;;;;;;1.15;0.28;;;;;;;10.10;97.50;96770.19;4932191;28;20050;-88
2022/04/07 11:04:20;;;;;;;1.08;0.43;;;;;;;10.08;97.23;96774.94;4943058;28;20055;-88
2022/04/07 11:07:22;;;;;;;1.23;0.50;;;;;;;9.99;96.81;96792.22;4941879;28;20055;-88
2022/04/07 11:10:00;;;;;;;2.75;0.50;;;;;;;9.99;96.75;96782.38;4943580;28;20051;-88
2022/04/07 11:13:00;;;;;;;2.17;0.70;;;;;;;9.95;95.80;96788.34;4942018;28;20131;-88
2022/04/07 11:15:33;;;;;;;0.95;0.63;;;;;;;9.95;95.31;96793.69;4943447;28;20475;-88
2022/04/07 11:18:22;;;;;;;1.02;0.60;;;;;;;9.97;95.02;96778.28;4932554;29;20039;-89
2022/04/07 11:21:02;;;;;;;1.10;0.63;;;;;;;10.00;95.57;96807.22;4943299;28;20507;-89
2022/04/07 11:23:53;;;;;;;1.65;0.60;;;;;;;9.98;94.73;96810.09;4941900;28;20031;-89
2022/04/07 11:26:25;;;;;;;0.82;0.40;;;;;;;9.99;93.59;96806.41;4924914;29;20258;-88
2022/04/07 11:28:58;;;;;;;0.95;0.50;;;;;;;10.00;94.12;96802.69;4940598;28;20520;-88
2022/04/07 11:31:45;;;;;;;1.63;0.50;;;;;;;10.08;94.46;96802.44;4947752;28;20162;-88
2022/04/07 11:34:42;;;;;;;1.52;0.55;;;;;;;10.14;94.97;96824.00;4939663;28;20398;-88
2022/04/07 11:37:12;;;;;;;2.13;0.60;;;;;;;10.16;95.16;96820.06;4932327;28;20513;-89
2022/04/07 11:39:39;;;;;;;3.60;0.80;;;;;;;10.19;95.39;96826.84;4941293;28;20042;-88